Time;durP1;ratioP1;P1;durP2;ratioP2;P2;SDS_P1;SDS_P2;PMS_P1;PMS_P2;Temp;Humidity;BMP_temperature;BMP_pressure;BME280_temperature;BME280_humidity;BME280_pressure;Samples;Min_cycle;Max_cycle;Signal;HPM_P1;HPM_P2
2022/02/04 00:04:26;;;;;;;14.52;6.78;;;;;;;24.27;15.65;98057.44;5066467;28;20032;-79
2022/02/04 00:09:36;;;;;;;15.38;6.53;;;;;;;24.53;15.68;98067.63;5061683;28;20595;-79
2022/02/04 00:20:36;;;;;;;22.73;6.85;;;;;;;24.38;15.99;98067.19;5062119;28;20051;-79
2022/02/04 00:23:10;;;;;;;27.02;7.90;;;;;;;24.43;16.17;98074.31;5052425;28;20396;-79
2022/02/04 00:28:14;;;;;;;26.10;10.77;;;;;;;24.36;16.54;98071.66;5063684;28;20032;-79
2022/02/04 00:30:46;;;;;;;16.50;7.43;;;;;;;24.43;16.55;98077.13;5059494;28;20043;-79
2022/02/04 00:33:14;;;;;;;12.18;5.15;;;;;;;24.71;16.56;98070.81;5059018;28;20389;-79
2022/02/04 00:40:42;;;;;;;8.93;3.30;;;;;;;24.44;17.04;98065.44;5061173;28;20085;-79
2022/02/04 00:43:12;;;;;;;7.18;3.55;;;;;;;24.18;17.42;98065.69;5062065;28;20035;-79
2022/02/04 00:45:48;;;;;;;5.13;2.15;;;;;;;24.16;17.57;98065.28;5056384;28;20055;-79
2022/02/04 00:56:28;;;;;;;3.92;2.03;;;;;;;24.02;18.03;98033.50;5070813;28;20121;-78
2022/02/04 01:26:12;;;;;;;5.38;1.90;;;;;;;24.51;17.58;97991.50;5064650;28;20506;-79
2022/02/04 01:28:41;;;;;;;3.85;1.95;;;;;;;24.63;17.31;97979.56;5057533;28;20706;-79
2022/02/04 01:31:11;;;;;;;6.32;2.05;;;;;;;24.39;17.74;97978.16;5054820;28;20489;-79
2022/02/04 01:33:38;;;;;;;2.70;1.57;;;;;;;24.37;17.73;97972.19;5068021;28;20076;-79
2022/02/04 01:36:04;;;;;;;3.25;1.58;;;;;;;24.24;17.85;97955.31;5064739;28;20091;-79
2022/02/04 01:38:31;;;;;;;3.78;2.17;;;;;;;24.49;17.73;97951.84;5063879;28;20162;-79
2022/02/04 01:40:58;;;;;;;3.25;1.92;;;;;;;24.44;17.58;97943.97;5064452;28;20044;-79
2022/02/04 01:43:25;;;;;;;2.92;1.52;;;;;;;24.56;17.57;97934.84;5064039;28;20066;-79
2022/02/04 01:45:54;;;;;;;5.43;1.80;;;;;;;24.42;17.93;97924.78;5067865;28;20033;-79
2022/02/04 01:48:20;;;;;;;3.75;1.52;;;;;;;24.59;17.54;97917.13;5063942;28;20466;-79
2022/02/04 01:50:48;;;;;;;2.55;1.33;;;;;;;24.23;17.83;97916.44;5060061;28;20115;-79
2022/02/04 01:53:17;;;;;;;6.15;1.85;;;;;;;24.00;17.98;97900.56;5065337;28;20472;-79
2022/02/04 01:55:44;;;;;;;3.30;1.65;;;;;;;23.79;18.41;97896.25;5063323;28;20036;-79
2022/02/04 01:58:10;;;;;;;3.47;1.75;;;;;;;23.56;18.52;97896.41;5057413;28;20040;-79
2022/02/04 02:00:38;;;;;;;1.63;1.10;;;;;;;23.47;18.71;97893.41;5066772;28;20028;-79
2022/02/04 02:03:05;;;;;;;3.40;1.63;;;;;;;23.44;18.76;97890.66;5056627;28;20115;-79
2022/02/04 02:05:32;;;;;;;3.55;1.65;;;;;;;23.33;18.79;97885.28;5062627;28;20100;-79
2022/02/04 02:08:10;;;;;;;2.90;1.48;;;;;;;23.46;18.80;97891.00;5055551;28;20029;-79
2022/02/04 02:10:37;;;;;;;3.17;1.30;;;;;;;24.03;18.15;97882.84;5061748;28;20657;-79
2022/02/04 02:41:26;;;;;;;3.05;1.73;;;;;;;22.76;19.54;97854.88;5061200;28;20052;-79
2022/02/04 02:43:35;;;;;;;2.42;1.13;;;;;;;23.15;19.21;97852.03;5061759;28;20056;-79
2022/02/04 02:54:18;;;;;;;2.63;1.20;;;;;;;23.06;19.24;97854.63;5061486;28;20029;-79
2022/02/04 02:59:35;;;;;;;3.67;1.58;;;;;;;23.69;18.70;97869.25;5053574;28;20467;-79
2022/02/04 03:02:01;;;;;;;2.20;1.23;;;;;;;24.11;18.28;97869.47;5062610;28;20115;-79
2022/02/04 03:04:27;;;;;;;1.60;1.30;;;;;;;24.67;17.95;97865.94;5067682;28;20033;-79
2022/02/04 03:06:53;;;;;;;3.30;1.48;;;;;;;24.65;17.56;97862.00;5057679;28;20025;-79
2022/02/04 03:09:19;;;;;;;2.05;1.15;;;;;;;24.41;18.05;97861.44;5061617;28;20426;-79
2022/02/04 03:11:45;;;;;;;1.33;1.15;;;;;;;24.12;18.16;97854.22;5061695;28;20060;-79
2022/02/04 03:14:11;;;;;;;2.35;0.98;;;;;;;24.48;17.90;97857.69;5070389;28;20028;-79
2022/02/04 03:16:38;;;;;;;1.85;1.10;;;;;;;24.69;17.73;97852.25;5062367;28;20037;-79
2022/02/04 03:19:07;;;;;;;2.78;1.35;;;;;;;24.95;17.34;97853.13;5061117;28;20040;-79
2022/02/04 03:21:40;;;;;;;2.63;0.90;;;;;;;25.19;17.56;97856.44;5061373;28;20039;-79
2022/02/04 03:24:11;;;;;;;2.17;1.02;;;;;;;25.28;17.05;97859.38;5061420;28;20037;-79
2022/02/04 03:29:06;;;;;;;1.70;1.17;;;;;;;25.53;17.05;97858.66;5065938;28;20040;-79
2022/02/04 03:31:39;;;;;;;3.58;0.80;;;;;;;25.61;17.02;97851.56;5056538;28;20044;-79
2022/02/04 03:34:05;;;;;;;2.25;1.00;;;;;;;25.39;16.94;97843.78;5068379;28;20036;-79
2022/02/04 03:36:31;;;;;;;1.52;0.90;;;;;;;25.48;16.96;97845.97;5065297;28;20091;-79
2022/02/04 03:38:57;;;;;;;2.63;1.15;;;;;;;24.83;17.30;97836.28;5057512;28;20203;-79
2022/02/04 03:41:23;;;;;;;3.22;0.80;;;;;;;24.05;18.03;97843.94;5060232;28;20373;-79
2022/02/04 03:43:50;;;;;;;2.15;1.13;;;;;;;23.68;18.52;97841.66;5062225;28;20029;-79
2022/02/04 03:46:16;;;;;;;2.05;1.20;;;;;;;23.61;18.81;97842.63;5063606;28;20041;-78
2022/02/04 03:48:42;;;;;;;2.40;1.35;;;;;;;23.58;19.02;97832.28;5057033;28;20041;-79
2022/02/04 03:51:08;;;;;;;1.63;1.10;;;;;;;24.04;18.55;97836.75;5061816;28;20481;-79
2022/02/04 03:53:34;;;;;;;3.03;1.30;;;;;;;24.59;17.98;97825.28;5066816;28;20033;-79
2022/02/04 03:56:00;;;;;;;2.60;1.17;;;;;;;24.92;17.43;97827.97;5065877;28;20037;-79
2022/02/04 03:58:27;;;;;;;2.35;1.23;;;;;;;24.88;17.74;97821.69;5062015;28;20040;-79
2022/02/04 04:00:53;;;;;;;3.72;1.05;;;;;;;25.00;17.85;97824.50;5059282;28;20051;-79
2022/02/04 04:03:19;;;;;;;1.95;1.15;;;;;;;24.71;17.90;97835.72;5060454;28;20036;-79
2022/02/04 04:05:49;;;;;;;2.83;0.95;;;;;;;24.65;17.96;97831.13;5064801;28;20033;-79
2022/02/04 04:08:17;;;;;;;3.05;0.98;;;;;;;24.21;18.45;97848.75;5066969;28;20033;-79
2022/02/04 04:10:43;;;;;;;1.83;1.05;;;;;;;24.27;18.20;97836.56;5059755;28;20396;-79
2022/02/04 04:13:10;;;;;;;2.60;1.40;;;;;;;24.58;18.15;97839.72;5061771;28;20104;-79
2022/02/04 04:15:37;;;;;;;2.25;1.05;;;;;;;25.03;17.64;97831.25;5070391;28;20094;-79
2022/02/04 04:18:04;;;;;;;1.00;0.88;;;;;;;25.41;17.29;97832.09;5062387;28;20514;-79
2022/02/04 04:20:31;;;;;;;3.40;1.40;;;;;;;25.67;16.86;97828.06;5058260;28;20041;-79
2022/02/04 04:22:59;;;;;;;3.75;1.10;;;;;;;25.84;16.99;97815.44;5067635;28;20048;-79
2022/02/04 04:25:25;;;;;;;2.55;1.70;;;;;;;25.92;16.57;97818.81;5061098;28;20040;-79
2022/02/04 04:27:53;;;;;;;1.63;0.93;;;;;;;25.58;16.65;97818.75;5066709;28;20025;-79
2022/02/04 04:30:23;;;;;;;1.23;0.80;;;;;;;24.99;17.24;97814.53;5069544;28;20024;-79
2022/02/04 04:32:53;;;;;;;1.85;1.15;;;;;;;24.97;17.37;97807.78;5072894;28;20041;-79
2022/02/04 04:35:23;;;;;;;2.38;1.10;;;;;;;24.68;17.51;97800.16;5071318;28;20024;-79
2022/02/04 04:38:07;;;;;;;1.58;0.93;;;;;;;24.25;18.03;97802.53;5065103;28;20029;-79
2022/02/04 04:40:57;;;;;;;1.88;1.05;;;;;;;23.91;18.52;97807.84;5065869;28;20067;-79
2022/02/04 04:43:41;;;;;;;1.75;0.80;;;;;;;23.24;19.03;97810.22;5066499;28;20037;-79
2022/02/04 05:26:01;;;;;;;3.47;1.30;;;;;;;24.07;18.62;97805.03;5066572;28;20097;-79
2022/02/04 05:29:50;;;;;;;1.98;1.42;;;;;;;24.95;17.75;97782.16;5064920;28;20120;-79
2022/02/04 05:32:17;;;;;;;2.05;1.52;;;;;;;25.26;17.37;97781.16;5069215;28;20031;-79
2022/02/04 05:34:45;;;;;;;3.15;1.45;;;;;;;25.48;17.27;97777.69;5064923;28;20125;-79
2022/02/04 05:37:13;;;;;;;4.28;1.70;;;;;;;25.65;16.92;97785.53;5062528;28;20744;-80
2022/02/04 05:39:51;;;;;;;2.97;1.60;;;;;;;25.75;16.87;97783.63;5057864;28;20045;-79
2022/02/04 05:42:21;;;;;;;3.28;1.65;;;;;;;25.66;16.67;97787.13;5056853;28;20049;-79
2022/02/04 05:44:55;;;;;;;4.53;2.00;;;;;;;25.60;16.99;97793.78;5066304;28;20484;-79
2022/02/04 05:47:21;;;;;;;3.92;1.77;;;;;;;25.67;16.77;97790.75;5057190;28;20036;-79
2022/02/04 05:50:10;;;;;;;5.43;1.52;;;;;;;25.63;16.91;97787.22;5068843;28;20033;-79
2022/02/04 05:52:50;;;;;;;3.63;1.50;;;;;;;25.65;17.00;97793.22;5056066;28;20033;-79
2022/02/04 05:55:49;;;;;;;2.65;1.13;;;;;;;25.43;17.01;97781.84;5056769;28;20021;-79
2022/02/04 05:58:23;;;;;;;3.30;1.50;;;;;;;25.25;17.07;97773.19;5064228;28;20448;-79
2022/02/04 06:04:02;;;;;;;3.25;1.38;;;;;;;25.27;16.99;97793.19;5067503;28;20043;-79
2022/02/04 06:06:38;;;;;;;2.55;1.45;;;;;;;25.18;16.94;97795.88;5062926;28;22037;-80
2022/02/04 06:22:19;;;;;;;2.60;2.00;;;;;;;24.41;17.13;97810.16;5066699;28;20110;-79
2022/02/04 06:24:47;;;;;;;2.65;1.42;;;;;;;24.50;17.11;97813.91;5064238;28;20487;-79
2022/02/04 06:27:14;;;;;;;3.92;1.95;;;;;;;23.76;17.90;97815.03;5061837;28;20024;-79
2022/02/04 06:29:40;;;;;;;3.90;2.05;;;;;;;23.73;18.20;97808.31;5066795;28;20503;-79
2022/02/04 06:32:07;;;;;;;4.30;2.00;;;;;;;24.00;17.94;97808.81;5065591;28;20468;-79
2022/02/04 06:34:33;;;;;;;2.50;1.83;;;;;;;24.15;17.65;97803.66;5067436;28;20041;-79
2022/02/04 06:36:59;;;;;;;2.42;1.85;;;;;;;24.28;17.39;97801.66;5060058;28;20546;-79
2022/02/04 06:39:25;;;;;;;2.55;1.60;;;;;;;24.45;17.30;97796.81;5062727;28;20091;-78
2022/02/04 06:41:52;;;;;;;3.08;1.77;;;;;;;24.71;17.36;97802.03;5063067;28;20024;-80
2022/02/04 06:44:18;;;;;;;3.13;1.88;;;;;;;24.91;16.76;97803.91;5064708;28;20033;-80
2022/02/04 06:46:44;;;;;;;4.70;2.15;;;;;;;25.04;16.79;97797.09;5060536;28;20032;-80
2022/02/04 06:49:10;;;;;;;4.00;2.08;;;;;;;25.14;16.74;97803.63;5059816;28;20063;-80
2022/02/04 06:51:36;;;;;;;3.65;1.98;;;;;;;25.28;16.63;97806.00;5066880;28;20033;-80
2022/02/04 06:54:02;;;;;;;6.97;3.17;;;;;;;25.27;16.72;97798.81;5065032;28;20032;-80
2022/02/04 06:56:32;;;;;;;12.18;3.97;;;;;;;25.38;16.78;97793.63;5091280;28;20036;-80
2022/02/04 06:58:59;;;;;;;8.15;4.32;;;;;;;25.34;16.53;97792.97;5063926;28;20032;-80
2022/02/04 07:01:26;;;;;;;9.75;3.60;;;;;;;24.83;17.40;97791.34;5064222;28;20125;-80
2022/02/04 07:03:53;;;;;;;4.90;3.20;;;;;;;24.53;17.46;97793.34;5061651;28;20032;-80
2022/02/04 07:06:19;;;;;;;7.72;2.38;;;;;;;24.26;17.91;97800.53;5066044;28;20024;-80
2022/02/04 07:14:18;;;;;;;3.90;2.22;;;;;;;25.02;17.31;97796.75;5061195;28;20130;-80
2022/02/04 07:19:48;;;;;;;5.28;2.35;;;;;;;24.78;17.84;97798.28;5072402;28;19930;-80
2022/02/04 07:22:27;;;;;;;3.90;2.38;;;;;;;25.06;17.57;97791.84;5064829;28;20467;-81
2022/02/04 07:24:56;;;;;;;4.80;2.25;;;;;;;25.53;17.48;97796.81;5072354;28;20389;-81
2022/02/04 07:27:23;;;;;;;5.63;2.90;;;;;;;25.88;16.99;97799.22;5066016;28;20028;-81
2022/02/04 07:29:52;;;;;;;3.47;2.63;;;;;;;26.13;16.73;97801.25;5064973;28;20036;-81
2022/02/04 07:42:46;;;;;;;7.68;3.53;;;;;;;25.14;17.19;97798.00;5063949;28;20047;-80
2022/02/04 07:45:12;;;;;;;16.50;4.85;;;;;;;24.98;17.65;97796.06;5057790;28;20040;-81
2022/02/04 07:47:38;;;;;;;11.68;5.15;;;;;;;25.05;17.66;97804.28;5064167;28;20037;-81
2022/02/04 07:50:06;;;;;;;11.00;4.68;;;;;;;25.50;17.63;97794.91;5067787;28;20044;-80
2022/02/04 07:52:32;;;;;;;14.25;7.40;;;;;;;25.81;17.55;97796.66;5064467;28;20523;-81
2022/02/04 07:54:58;;;;;;;9.65;4.70;;;;;;;26.14;17.35;97799.97;5079270;28;20059;-81
2022/02/04 07:57:24;;;;;;;15.68;8.90;;;;;;;26.49;17.26;97801.53;5064476;28;20063;-81
2022/02/04 07:59:50;;;;;;;10.85;6.80;;;;;;;26.69;17.00;97792.78;5064910;28;20025;-81
2022/02/04 08:02:16;;;;;;;14.43;6.68;;;;;;;26.76;17.07;97791.75;5070316;28;20045;-81
2022/02/04 08:04:45;;;;;;;16.42;7.00;;;;;;;26.86;17.38;97790.59;5066195;28;20028;-81
2022/02/04 08:07:14;;;;;;;20.50;9.23;;;;;;;26.92;17.47;97791.56;5065089;28;20068;-82
2022/02/04 08:15:14;;;;;;;20.30;9.88;;;;;;;27.15;17.14;97802.31;5070949;28;20038;-81
2022/02/04 08:18:14;;;;;;;18.73;7.78;;;;;;;27.20;17.30;97796.09;5060842;28;20175;-81
2022/02/04 08:24:02;;;;;;;23.92;10.57;;;;;;;27.27;17.49;97795.81;5065568;28;20420;-81
2022/02/04 08:36:22;;;;;;;9.88;4.82;;;;;;;27.38;16.56;97793.38;5067743;28;20052;-81
2022/02/04 08:49:32;;;;;;;10.30;4.78;;;;;;;27.10;17.33;97797.28;5060679;28;20119;-82
2022/02/04 08:54:32;;;;;;;8.27;4.97;;;;;;;27.28;16.85;97805.84;5061623;28;20082;-81
2022/02/04 08:57:03;;;;;;;9.77;4.85;;;;;;;27.40;17.19;97817.06;5073284;28;20083;-81
2022/02/04 09:05:09;;;;;;;6.70;3.45;;;;;;;27.61;16.54;97812.59;5050198;28;20156;-81
2022/02/04 09:07:50;;;;;;;5.85;3.83;;;;;;;27.66;17.11;97820.44;5061008;28;20060;-81
2022/02/04 09:10:21;;;;;;;5.93;3.25;;;;;;;27.52;17.23;97815.38;5069686;28;20112;-81
2022/02/04 09:21:36;;;;;;;5.72;2.63;;;;;;;27.55;15.97;97827.78;5062753;28;20088;-81
2022/02/04 09:23:39;;;;;;;4.72;2.40;;;;;;;26.37;17.09;97826.94;5068331;28;20094;-81
2022/02/04 09:26:07;;;;;;;8.50;4.88;;;;;;;26.45;16.99;97829.06;5068379;28;20021;-81
2022/02/04 09:28:35;;;;;;;5.95;2.55;;;;;;;26.16;16.91;97830.50;5061585;28;20037;-81
2022/02/04 09:31:01;;;;;;;4.03;2.05;;;;;;;26.27;17.26;97831.72;5062151;28;20407;-81
2022/02/04 09:33:28;;;;;;;5.90;2.83;;;;;;;26.50;17.24;97834.09;5064027;28;20109;-81
2022/02/04 09:35:54;;;;;;;5.55;2.40;;;;;;;26.82;16.86;97829.34;5066524;28;20029;-81
2022/02/04 09:38:20;;;;;;;6.07;1.98;;;;;;;26.99;16.23;97828.72;5067529;28;20033;-81
2022/02/04 09:40:46;;;;;;;3.97;1.83;;;;;;;27.27;16.30;97830.44;5065905;28;20082;-81
2022/02/04 09:43:12;;;;;;;6.10;2.10;;;;;;;27.60;16.64;97833.59;5073950;28;20037;-81
2022/02/04 09:45:38;;;;;;;3.85;1.80;;;;;;;27.51;16.16;97836.38;5065245;28;20039;-81
2022/02/04 09:48:10;;;;;;;3.25;1.40;;;;;;;27.56;16.31;97827.31;5073360;28;20036;-82
2022/02/04 09:50:41;;;;;;;3.75;1.60;;;;;;;27.76;16.57;97829.72;5071982;28;20025;-81
2022/02/04 10:09:53;;;;;;;1.90;1.15;;;;;;;28.09;16.36;97816.69;5070111;28;20044;-81
2022/02/04 10:17:56;;;;;;;3.05;1.38;;;;;;;28.69;15.93;97799.94;5060672;28;20098;-81
2022/02/04 10:20:24;;;;;;;3.92;1.75;;;;;;;28.93;16.39;97789.56;5061456;28;20044;-81
2022/02/04 10:22:50;;;;;;;3.60;1.67;;;;;;;28.83;15.49;97788.00;5064068;28;20051;-81
2022/02/04 10:25:17;;;;;;;5.22;1.92;;;;;;;28.72;15.73;97782.06;5073212;28;20377;-81
2022/02/04 10:27:47;;;;;;;3.83;1.55;;;;;;;28.60;16.04;97795.09;5054550;28;20033;-81
2022/02/04 10:30:15;;;;;;;2.28;1.48;;;;;;;28.36;15.40;97798.97;5072398;28;20056;-81
2022/02/04 10:32:49;;;;;;;3.17;1.67;;;;;;;27.69;15.68;97793.34;5064216;28;20035;-81
2022/02/04 10:35:21;;;;;;;2.70;1.50;;;;;;;27.45;16.64;97783.84;5061976;28;20063;-81
2022/02/04 10:38:20;;;;;;;3.47;1.85;;;;;;;27.89;16.54;97780.38;5067756;28;20086;-81
2022/02/04 10:41:00;;;;;;;4.13;2.75;;;;;;;28.20;15.43;97773.88;5060286;28;20095;-81
2022/02/04 10:43:40;;;;;;;4.50;2.47;;;;;;;28.25;16.29;97776.06;5062130;28;20032;-81
2022/02/04 10:46:27;;;;;;;7.07;3.42;;;;;;;28.49;15.92;97777.81;5068417;28;20032;-81
2022/02/04 10:57:35;;;;;;;3.75;2.00;;;;;;;28.91;15.90;97768.69;5062971;28;20067;-82
2022/02/04 11:02:41;;;;;;;4.63;1.70;;;;;;;28.68;15.88;97765.25;5064480;28;20396;-82
2022/02/04 11:05:24;;;;;;;4.13;1.77;;;;;;;28.25;15.91;97767.59;5061491;28;20028;-81
2022/02/04 11:33:11;;;;;;;3.25;1.13;;;;;;;28.78;16.58;97740.59;5062077;28;20055;-81
2022/02/04 11:35:30;;;;;;;2.65;1.52;;;;;;;28.89;15.99;97735.25;5060924;28;21767;-81
2022/02/04 11:55:12;;;;;;;3.78;2.00;;;;;;;28.67;15.53;97726.97;5065414;28;20041;-81
2022/02/04 11:57:52;;;;;;;5.13;2.53;;;;;;;28.67;15.88;97734.66;5058957;28;20033;-81
2022/02/04 12:00:20;;;;;;;4.20;2.28;;;;;;;28.51;15.99;97735.75;5064097;28;20044;-81
2022/02/04 12:02:52;;;;;;;3.42;1.63;;;;;;;27.90;15.96;97745.28;5063817;28;20032;-81
2022/02/04 12:05:18;;;;;;;3.17;1.73;;;;;;;27.89;15.71;97740.88;5065981;28;20048;-81
2022/02/04 12:07:47;;;;;;;2.75;1.63;;;;;;;27.56;16.34;97739.09;5062170;28;20029;-81
2022/02/04 12:10:13;;;;;;;4.40;1.55;;;;;;;27.64;16.23;97738.34;5065893;28;20029;-81
2022/02/04 12:13:10;;;;;;;2.78;1.77;;;;;;;27.90;16.09;97738.84;5065337;28;20028;-81
2022/02/04 12:15:37;;;;;;;3.83;1.92;;;;;;;27.75;15.59;97741.47;5059538;28;20536;-81
2022/02/04 12:18:07;;;;;;;3.55;1.90;;;;;;;27.67;16.44;97731.75;5063760;28;20048;-81
2022/02/04 12:23:32;;;;;;;2.00;1.27;;;;;;;27.19;16.14;97736.13;5071925;28;20033;-81
2022/02/04 12:26:13;;;;;;;6.03;2.33;;;;;;;27.02;16.35;97734.81;5068568;28;20043;-81
2022/02/04 12:28:48;;;;;;;4.13;1.92;;;;;;;26.28;17.12;97729.13;5063912;28;20045;-80
2022/02/04 12:31:24;;;;;;;6.72;2.58;;;;;;;24.98;18.44;97731.47;5064123;28;20129;-80
2022/02/04 12:33:50;;;;;;;3.95;2.30;;;;;;;24.58;18.56;97730.25;5058190;28;20492;-81
2022/02/04 12:36:30;;;;;;;7.22;2.85;;;;;;;23.53;19.76;97740.31;5060352;28;20056;-80
2022/02/04 12:38:59;;;;;;;8.50;3.22;;;;;;;22.95;20.17;97736.50;5073536;28;20021;-81
2022/02/04 12:41:31;;;;;;;8.35;4.50;;;;;;;23.18;20.44;97736.34;5059954;28;20499;-81
2022/02/04 12:44:01;;;;;;;8.18;3.72;;;;;;;23.56;20.69;97733.84;5062563;28;20021;-81
2022/02/04 12:46:30;;;;;;;5.68;3.15;;;;;;;24.14;19.43;97733.94;5062864;28;20054;-81
2022/02/04 12:49:04;;;;;;;4.95;3.05;;;;;;;24.95;19.02;97728.78;5064066;28;20111;-80
2022/02/04 12:51:57;;;;;;;5.15;3.30;;;;;;;24.56;19.14;97727.91;5068701;28;20044;-80
2022/02/04 12:54:31;;;;;;;8.77;4.32;;;;;;;24.03;19.20;97728.59;5068018;28;20039;-81
2022/02/04 13:00:20;;;;;;;7.85;3.30;;;;;;;25.16;18.26;97725.28;5064195;28;20105;-80
2022/02/04 13:08:39;;;;;;;4.28;2.13;;;;;;;25.10;18.09;97727.88;5062992;28;20132;-80
2022/02/04 13:11:11;;;;;;;4.10;2.72;;;;;;;24.58;18.42;97727.44;5066936;28;20056;-80
2022/02/04 13:13:45;;;;;;;4.80;2.55;;;;;;;24.53;18.33;97723.19;5064434;28;20369;-80
2022/02/04 13:16:29;;;;;;;5.13;2.22;;;;;;;23.90;18.70;97731.34;5063880;28;20063;-80
2022/02/04 13:19:00;;;;;;;3.70;1.63;;;;;;;24.19;18.31;97731.38;5060721;28;20047;-80
2022/02/04 13:21:26;;;;;;;4.82;2.20;;;;;;;24.36;18.70;97724.50;5063481;28;20040;-80
2022/02/04 13:23:53;;;;;;;3.67;1.80;;;;;;;25.17;17.59;97716.44;5063145;28;20520;-80
2022/02/04 13:26:29;;;;;;;5.15;2.42;;;;;;;25.61;18.15;97719.41;5063677;28;20068;-80
2022/02/04 13:29:00;;;;;;;4.32;2.50;;;;;;;26.17;17.39;97714.66;5071434;28;20044;-80
2022/02/04 13:31:28;;;;;;;4.97;2.53;;;;;;;26.58;17.21;97711.50;5060185;28;20043;-80
2022/02/04 13:33:57;;;;;;;5.07;2.25;;;;;;;26.63;17.12;97715.75;5069528;28;20029;-80
2022/02/04 13:36:41;;;;;;;3.85;1.80;;;;;;;26.60;16.67;97709.03;5064767;28;20048;-80
2022/02/04 13:39:26;;;;;;;2.75;1.52;;;;;;;26.75;16.70;97712.09;5072243;28;20060;-80
2022/02/04 13:42:21;;;;;;;3.30;1.92;;;;;;;26.72;16.33;97710.19;5071227;28;20021;-80
2022/02/04 13:50:10;;;;;;;3.72;1.65;;;;;;;27.12;16.58;97702.56;5067828;28;20050;-81
2022/02/04 13:52:55;;;;;;;2.92;1.48;;;;;;;27.17;16.26;97701.97;5070188;28;20032;-80
2022/02/04 13:58:08;;;;;;;7.85;2.50;;;;;;;26.99;16.06;97693.44;5060290;28;20029;-80
2022/02/04 14:01:00;;;;;;;5.93;3.00;;;;;;;26.78;16.12;97699.91;5068267;28;20036;-80
2022/02/04 14:03:37;;;;;;;9.85;4.10;;;;;;;25.71;16.74;97690.94;5068459;28;20040;-81
2022/02/04 14:06:28;;;;;;;8.77;3.13;;;;;;;24.85;17.06;97691.38;5067958;28;20077;-80
2022/02/04 14:09:04;;;;;;;6.75;2.40;;;;;;;25.49;16.95;97704.16;5064185;28;20036;-80
2022/02/04 14:11:36;;;;;;;6.22;3.58;;;;;;;25.68;16.79;97702.31;5065481;28;20060;-79
2022/02/04 14:14:05;;;;;;;8.77;3.65;;;;;;;25.20;17.08;97704.28;5066171;28;20036;-79
2022/02/04 14:16:32;;;;;;;5.95;2.92;;;;;;;25.65;16.73;97703.25;5061207;28;20068;-80
2022/02/04 14:18:58;;;;;;;6.47;2.78;;;;;;;25.49;17.57;97698.53;5063468;28;20244;-79
2022/02/04 14:21:24;;;;;;;7.47;3.92;;;;;;;25.75;17.06;97691.59;5065884;28;20040;-80
2022/02/04 14:23:57;;;;;;;7.18;3.90;;;;;;;25.71;17.01;97690.94;5069521;28;20099;-79
2022/02/04 14:26:35;;;;;;;5.82;3.13;;;;;;;26.09;17.12;97694.41;5063238;28;20028;-81
2022/02/04 14:29:11;;;;;;;5.20;2.70;;;;;;;26.51;16.35;97689.25;5064985;28;20025;-80
2022/02/04 14:32:23;;;;;;;6.35;3.00;;;;;;;26.67;16.46;97693.91;5067313;28;20036;-82
2022/02/04 14:37:17;;;;;;;12.82;6.07;;;;;;;26.64;16.39;97689.16;5068075;28;20085;-81
2022/02/04 14:53:25;;;;;;;6.18;3.38;;;;;;;25.75;17.42;97697.22;5062810;28;20060;-79
2022/02/04 15:01:29;;;;;;;5.00;2.40;;;;;;;25.67;17.23;97706.38;5063841;28;20393;-79
2022/02/04 15:06:31;;;;;;;5.47;2.80;;;;;;;25.50;17.23;97702.13;5063300;28;19975;-80
2022/02/04 15:08:58;;;;;;;5.15;2.72;;;;;;;25.67;17.29;97700.75;5066155;28;20476;-80
2022/02/04 15:11:31;;;;;;;4.22;2.20;;;;;;;25.46;17.22;97707.88;5094845;28;20166;-79
2022/02/04 15:13:59;;;;;;;5.13;2.72;;;;;;;25.77;17.70;97703.19;5069025;28;20119;-81
2022/02/04 15:16:27;;;;;;;8.30;3.20;;;;;;;26.15;17.02;97700.25;5060266;28;20178;-81
2022/02/04 15:18:53;;;;;;;6.93;2.90;;;;;;;26.22;17.00;97705.63;5059418;28;20070;-81
2022/02/04 15:21:21;;;;;;;7.90;3.25;;;;;;;26.44;16.71;97705.63;5055648;28;20040;-81
2022/02/04 15:23:51;;;;;;;4.55;3.05;;;;;;;26.08;17.17;97709.72;5059144;28;20133;-81
2022/02/04 15:26:20;;;;;;;7.63;3.70;;;;;;;26.32;16.64;97704.47;5058685;28;20033;-81
2022/02/04 15:28:50;;;;;;;7.30;3.15;;;;;;;26.27;16.70;97709.88;5056871;28;20029;-81
2022/02/04 15:33:48;;;;;;;17.60;8.10;;;;;;;26.48;16.58;97720.38;5063388;28;20055;-82
2022/02/04 15:36:23;;;;;;;10.30;4.40;;;;;;;26.33;16.92;97713.66;5054852;28;20292;-82
2022/02/04 15:38:49;;;;;;;8.13;3.33;;;;;;;26.24;16.46;97717.22;5062148;28;20052;-81
2022/02/04 15:41:15;;;;;;;7.05;3.47;;;;;;;25.97;17.01;97719.78;5058719;28;20028;-80
2022/02/04 15:43:42;;;;;;;8.18;3.90;;;;;;;26.04;17.03;97720.28;5059615;28;20135;-81
2022/02/04 15:46:36;;;;;;;9.75;4.97;;;;;;;25.97;17.51;97717.75;5059573;28;20115;-81
2022/02/04 15:49:27;;;;;;;10.30;5.10;;;;;;;26.14;16.98;97724.00;5066444;28;20090;-81
2022/02/04 16:04:48;;;;;;;15.23;5.35;;;;;;;25.53;17.14;97723.72;5061910;28;20630;-79
2022/02/04 16:07:17;;;;;;;11.70;5.63;;;;;;;25.41;17.12;97720.44;5064100;28;20127;-79
2022/02/04 16:09:49;;;;;;;12.68;4.75;;;;;;;25.50;17.48;97713.38;5057369;28;20043;-79
2022/02/04 16:15:21;;;;;;;9.35;3.35;;;;;;;25.36;17.33;97712.59;5057277;28;20400;-79
2022/02/04 16:17:55;;;;;;;7.10;2.92;;;;;;;25.31;17.60;97710.34;5058843;28;20029;-79
2022/02/04 16:20:38;;;;;;;5.13;2.80;;;;;;;25.37;17.40;97710.53;5057620;28;20052;-79
2022/02/04 16:23:13;;;;;;;6.20;2.72;;;;;;;25.46;17.50;97707.09;5053053;28;20036;-79
2022/02/04 16:25:53;;;;;;;7.35;3.22;;;;;;;25.66;17.34;97710.41;5059035;28;20110;-79
2022/02/04 16:31:04;;;;;;;6.07;2.67;;;;;;;25.55;17.38;97716.41;5062560;28;20036;-80
2022/02/04 16:33:30;;;;;;;5.75;3.13;;;;;;;25.62;17.20;97709.75;5063065;28;20025;-82
2022/02/04 16:36:03;;;;;;;5.07;2.58;;;;;;;25.27;17.40;97700.47;5063262;28;20024;-81
2022/02/04 16:38:30;;;;;;;7.10;3.28;;;;;;;25.03;17.68;97697.22;5058110;28;20040;-80
2022/02/04 16:41:03;;;;;;;9.95;5.28;;;;;;;25.25;17.56;97686.09;5058434;28;20595;-81
2022/02/04 16:43:30;;;;;;;35.65;17.70;;;;;;;25.35;17.48;97691.34;5063213;28;20072;-79
2022/02/04 16:45:56;;;;;;;16.95;10.13;;;;;;;25.81;17.37;97680.56;5062865;28;20834;-80
2022/02/04 16:48:22;;;;;;;17.70;9.15;;;;;;;25.81;17.06;97695.41;5061212;28;20029;-80
2022/02/04 16:50:51;;;;;;;24.17;11.10;;;;;;;25.93;17.05;97690.97;5093236;28;20202;-81
2022/02/04 16:53:17;;;;;;;15.45;7.07;;;;;;;25.65;16.56;97686.38;5059256;28;20393;-79
2022/02/04 16:55:43;;;;;;;15.20;7.55;;;;;;;25.49;17.43;97694.94;5064391;28;20046;-79
2022/02/04 16:58:10;;;;;;;9.75;4.88;;;;;;;25.85;17.14;97686.84;5063396;28;20044;-80
2022/02/04 17:00:36;;;;;;;10.32;5.90;;;;;;;26.02;16.69;97686.22;5066348;28;20503;-80
2022/02/04 17:03:07;;;;;;;11.38;5.32;;;;;;;26.25;16.88;97682.22;5064348;28;20032;-80
2022/02/04 17:05:39;;;;;;;9.30;4.18;;;;;;;26.52;16.66;97688.00;5063367;28;20044;-80
2022/02/04 17:08:10;;;;;;;12.70;6.18;;;;;;;26.78;16.56;97693.50;5061768;28;20040;-80
2022/02/04 17:10:41;;;;;;;9.18;5.10;;;;;;;26.82;16.34;97688.50;5059407;28;20098;-80
2022/02/04 17:13:08;;;;;;;11.82;5.18;;;;;;;26.49;16.51;97680.47;5044100;28;20024;-80
2022/02/04 17:15:36;;;;;;;10.68;5.55;;;;;;;26.18;16.61;97678.88;5060362;28;20032;-80
2022/02/04 17:18:05;;;;;;;9.77;3.88;;;;;;;26.11;16.62;97677.09;5066614;28;20124;-81
2022/02/04 17:20:31;;;;;;;8.65;3.95;;;;;;;25.36;17.15;97681.69;5062840;28;20085;-80
2022/02/04 17:23:02;;;;;;;10.70;5.70;;;;;;;25.09;17.66;97677.75;5062093;28;20033;-80
2022/02/04 17:25:29;;;;;;;10.10;5.45;;;;;;;25.46;17.09;97681.81;5068149;28;20029;-81
2022/02/04 17:27:57;;;;;;;9.77;5.25;;;;;;;25.93;17.34;97674.88;5063338;28;20093;-81
2022/02/04 17:30:24;;;;;;;9.70;4.75;;;;;;;25.67;17.26;97669.81;5062969;28;20037;-80
2022/02/04 17:32:51;;;;;;;9.98;6.32;;;;;;;25.75;16.83;97674.72;5057968;28;20032;-81
2022/02/04 17:35:20;;;;;;;21.50;11.90;;;;;;;25.50;17.43;97683.25;5065056;28;20028;-82
2022/02/04 17:37:47;;;;;;;16.88;8.55;;;;;;;25.73;16.82;97679.25;5059016;28;20115;-82
2022/02/04 17:40:15;;;;;;;16.75;8.35;;;;;;;25.36;17.63;97676.06;5060876;28;20192;-81
2022/02/04 17:42:43;;;;;;;18.25;8.38;;;;;;;25.73;17.03;97668.78;5059246;28;20496;-81
2022/02/04 17:45:10;;;;;;;13.90;8.07;;;;;;;26.07;16.88;97676.41;5068912;28;20102;-81
2022/02/04 17:47:38;;;;;;;16.20;8.65;;;;;;;26.22;16.85;97673.88;5061012;28;20032;-81
2022/02/04 17:50:14;;;;;;;15.73;8.07;;;;;;;26.49;16.79;97686.09;5065689;28;20428;-81